Terminal Aerodrome Forecast
Issued by NWS

Current Version | Previous Version | Text Only | Print | Product List | Glossary Off
Versions: 1 2 3 4 5 6 7 8 9 10 11 12 13 14 15

235
FTUS41 KILN 210714 AAB
TAFLCK
TAF AMD
KLCK 210714Z 2107/2206 VRB04KT 2SM -RA BR OVC004
     FM211400 35010KT P6SM SCT003 OVC012
     FM211900 35012G20KT P6SM VCSH SCT020 OVC035
     FM220000 35006KT P6SM SCT060=

USA.gov is the U.S. government's official web portal to all federal, state and local government web resources and services.